Time;durP1;ratioP1;P1;durP2;ratioP2;P2;SDS_P1;SDS_P2;PMS_P1;PMS_P2;Temp;Humidity;BMP_temperature;BMP_pressure;BME280_temperature;BME280_humidity;BME280_pressure;Samples;Min_cycle;Max_cycle;Signal;HPM_P1;HPM_P2
2021/09/02 00:01:45;;;;;;;8.27;6.17;;;;;;;16.98;56.45;98915.97;8415269;28;20199;-60
2021/09/02 00:05:48;;;;;;;6.77;6.07;;;;;;;16.89;56.37;98910.41;8415812;28;20304;-60
2021/09/02 00:09:52;;;;;;;7.63;6.77;;;;;;;16.85;56.38;98907.13;8416005;28;20222;-60
2021/09/02 00:13:56;;;;;;;6.77;6.07;;;;;;;16.92;56.92;98911.06;8415881;28;20206;-60
2021/09/02 00:18:00;;;;;;;7.10;6.40;;;;;;;16.83;56.97;98903.75;8415657;28;22131;-60
2021/09/02 00:22:02;;;;;;;8.73;6.30;;;;;;;16.77;57.12;98896.19;8415760;28;20205;-60
2021/09/02 00:26:05;;;;;;;12.17;6.57;;;;;;;16.79;56.62;98903.03;8415739;28;20206;-60
2021/09/02 00:30:11;;;;;;;8.17;6.40;;;;;;;16.72;56.74;98906.06;8415740;28;20210;-60
2021/09/02 00:34:13;;;;;;;6.77;6.17;;;;;;;16.78;56.50;98909.19;8415391;28;20231;-60
2021/09/02 00:38:16;;;;;;;6.77;6.07;;;;;;;16.69;56.48;98906.22;8415469;28;20222;-60
2021/09/02 00:42:19;;;;;;;6.30;5.70;;;;;;;16.68;56.21;98904.53;8415496;28;20500;-60
2021/09/02 00:46:23;;;;;;;8.67;5.70;;;;;;;16.58;56.09;98907.66;8415255;28;20195;-60
2021/09/02 00:50:27;;;;;;;9.80;5.90;;;;;;;16.54;56.13;98911.34;8415179;28;20211;-60
2021/09/02 00:54:30;;;;;;;9.27;6.17;;;;;;;16.59;56.20;98911.94;8418602;28;20199;-60
2021/09/02 00:58:33;;;;;;;9.80;6.40;;;;;;;16.54;56.06;98911.34;8421341;28;20246;-60
2021/09/02 01:02:38;;;;;;;6.77;5.17;;;;;;;16.44;55.75;98904.94;8420980;28;20206;-60
2021/09/02 01:06:41;;;;;;;7.50;5.50;;;;;;;16.39;56.04;98899.09;8421112;28;20230;-60
2021/09/02 01:10:49;;;;;;;6.50;5.70;;;;;;;16.33;55.96;98910.72;8420997;28;20524;-60
2021/09/02 01:14:51;;;;;;;6.97;6.13;;;;;;;16.36;56.15;98894.06;8421021;28;20396;-60
2021/09/02 01:18:55;;;;;;;8.23;5.93;;;;;;;16.27;56.52;98902.38;8420796;28;20540;-60
2021/09/02 01:23:02;;;;;;;9.63;7.03;;;;;;;16.26;56.65;98896.31;8421004;28;20199;-60
2021/09/02 01:27:06;;;;;;;7.40;6.13;;;;;;;16.28;56.88;98889.22;8420543;28;20205;-60
2021/09/02 01:31:09;;;;;;;6.83;6.13;;;;;;;16.18;56.78;98896.72;8420541;28;20203;-60
2021/09/02 01:35:13;;;;;;;6.97;6.27;;;;;;;16.13;56.81;98900.50;8420193;28;20226;-60
2021/09/02 01:39:18;;;;;;;6.57;5.97;;;;;;;16.05;56.98;98893.06;8419908;28;20231;-60
2021/09/02 01:43:22;;;;;;;10.40;6.47;;;;;;;16.16;56.66;98900.31;8420424;28;20213;-60
2021/09/02 01:47:26;;;;;;;7.37;6.67;;;;;;;16.06;57.49;98899.13;8419767;28;20199;-60
2021/09/02 01:51:29;;;;;;;9.57;6.37;;;;;;;16.03;57.43;98910.59;8419875;28;20229;-60
2021/09/02 01:55:32;;;;;;;9.80;6.50;;;;;;;16.09;57.10;98904.16;8419544;28;20199;-60
2021/09/02 01:59:37;;;;;;;7.23;6.53;;;;;;;16.08;57.00;98902.50;8419510;28;20234;-60
2021/09/02 02:03:39;;;;;;;9.13;6.23;;;;;;;16.00;56.94;98890.66;8418938;28;20241;-60
2021/09/02 02:07:43;;;;;;;7.30;5.77;;;;;;;15.99;57.32;98893.34;8419250;28;20214;-60
2021/09/02 02:11:46;;;;;;;7.50;6.00;;;;;;;15.98;57.10;98889.06;8419389;28;20209;-60
2021/09/02 02:15:51;;;;;;;10.10;6.20;;;;;;;15.90;56.88;98880.78;8419094;28;20199;-60
2021/09/02 02:19:54;;;;;;;8.80;6.00;;;;;;;15.83;56.83;98877.63;8418884;28;20227;-60
2021/09/02 02:23:56;;;;;;;7.23;5.83;;;;;;;15.86;56.60;98882.72;8418818;28;20218;-60
2021/09/02 02:27:59;;;;;;;6.07;5.10;;;;;;;15.82;56.20;98887.25;8418668;28;20486;-60
2021/09/02 02:32:04;;;;;;;7.23;5.63;;;;;;;15.75;56.70;98885.84;8418444;28;20203;-60
2021/09/02 02:36:07;;;;;;;9.10;5.90;;;;;;;15.74;56.61;98875.47;8418081;28;20219;-60
2021/09/02 02:40:11;;;;;;;7.00;5.87;;;;;;;15.74;56.57;98867.66;8418138;28;20238;-60
2021/09/02 02:44:14;;;;;;;6.93;6.23;;;;;;;15.71;56.53;98875.63;8418054;28;20207;-60
2021/09/02 02:48:18;;;;;;;7.77;5.50;;;;;;;15.61;56.57;98873.47;8417858;28;20505;-60
2021/09/02 02:52:21;;;;;;;8.13;5.90;;;;;;;15.63;56.50;98873.38;8417836;28;20382;-60
2021/09/02 02:56:24;;;;;;;7.93;5.43;;;;;;;15.55;56.72;98876.38;8417644;28;20365;-60
2021/09/02 03:00:26;;;;;;;9.73;5.97;;;;;;;15.53;56.75;98872.16;8417451;28;20231;-60
2021/09/02 03:04:31;;;;;;;7.73;5.80;;;;;;;15.50;57.07;98864.47;8417172;28;20233;-60
2021/09/02 03:08:33;;;;;;;10.67;6.10;;;;;;;15.49;56.97;98870.63;8417520;28;20203;-60
2021/09/02 03:12:36;;;;;;;11.13;6.10;;;;;;;15.46;56.94;98866.41;8417347;28;20496;-60
2021/09/02 03:16:39;;;;;;;7.47;6.23;;;;;;;15.42;56.95;98872.69;8416480;28;20199;-60
2021/09/02 03:20:43;;;;;;;7.13;6.03;;;;;;;15.43;57.37;98863.94;8416980;28;20235;-60
2021/09/02 03:24:46;;;;;;;8.17;6.20;;;;;;;15.41;57.64;98861.41;8416910;28;20217;-60
2021/09/02 03:28:49;;;;;;;9.30;7.10;;;;;;;15.41;57.88;98860.56;8416702;28;20199;-60
2021/09/02 03:32:52;;;;;;;7.97;6.40;;;;;;;15.38;57.41;98873.78;8416501;28;20238;-60
2021/09/02 03:36:56;;;;;;;8.80;6.23;;;;;;;15.37;57.23;98878.16;8416393;28;20211;-60
2021/09/02 03:40:59;;;;;;;9.50;6.40;;;;;;;15.37;57.30;98872.09;8416367;28;20227;-60
2021/09/02 03:45:02;;;;;;;10.57;6.70;;;;;;;15.33;57.21;98876.63;8416265;28;20199;-60
2021/09/02 03:49:06;;;;;;;8.60;6.53;;;;;;;15.32;57.20;98877.53;8416193;28;20211;-60
2021/09/02 03:53:10;;;;;;;10.23;6.03;;;;;;;15.25;57.18;98886.59;8416415;28;20199;-60
2021/09/02 03:57:13;;;;;;;12.17;6.37;;;;;;;15.27;56.73;98883.88;8429001;28;20194;-60
2021/09/02 04:01:16;;;;;;;7.17;5.77;;;;;;;15.23;56.66;98886.66;8449432;28;20422;-60
2021/09/02 04:05:19;;;;;;;6.83;5.53;;;;;;;15.22;56.31;98881.50;8449773;28;20226;-60
2021/09/02 04:09:23;;;;;;;6.27;5.40;;;;;;;15.13;56.41;98884.56;8449616;28;20198;-60
2021/09/02 04:13:26;;;;;;;7.93;5.70;;;;;;;15.16;56.68;98881.81;8449508;28;20493;-60
2021/09/02 04:17:29;;;;;;;9.87;6.50;;;;;;;15.07;57.26;98874.44;8449428;28;20213;-60
2021/09/02 04:21:31;;;;;;;9.97;6.03;;;;;;;15.08;57.41;98879.59;8449239;28;20222;-60
2021/09/02 04:25:36;;;;;;;10.63;6.13;;;;;;;15.05;57.36;98877.94;8449421;28;20225;-60
2021/09/02 04:29:38;;;;;;;8.60;5.93;;;;;;;15.06;56.88;98884.03;8454689;28;20202;-60
2021/09/02 04:33:41;;;;;;;7.40;6.10;;;;;;;14.97;57.25;98890.53;8455804;28;20218;-60
2021/09/02 04:37:46;;;;;;;7.63;6.40;;;;;;;15.01;57.22;98880.78;8456025;28;20198;-60
2021/09/02 04:41:50;;;;;;;10.07;6.60;;;;;;;14.96;57.35;98887.97;8455509;28;20230;-60
2021/09/02 04:45:53;;;;;;;7.10;5.90;;;;;;;15.01;56.74;98894.66;8455515;28;20202;-60
2021/09/02 04:49:56;;;;;;;10.57;6.03;;;;;;;14.94;57.02;98895.88;8388530;28;20210;-60
2021/09/02 04:53:59;;;;;;;9.00;6.17;;;;;;;14.89;57.43;98899.63;8388462;28;20224;-60
2021/09/02 04:58:05;;;;;;;11.80;6.33;;;;;;;14.99;57.47;98895.66;8388293;28;20200;-60
2021/09/02 05:02:08;;;;;;;10.37;6.70;;;;;;;14.97;57.41;98897.50;8388260;28;20227;-60
2021/09/02 05:06:11;;;;;;;17.97;7.07;;;;;;;14.92;57.57;98902.94;8387968;28;20262;-60
2021/09/02 05:10:15;;;;;;;8.27;6.10;;;;;;;15.00;57.24;98895.59;8387947;28;20204;-60
2021/09/02 05:14:19;;;;;;;8.43;6.57;;;;;;;14.99;57.55;98900.88;8387814;28;20199;-60
2021/09/02 05:18:22;;;;;;;7.67;6.07;;;;;;;15.04;57.27;98891.94;8387727;28;20386;-60
2021/09/02 05:22:25;;;;;;;7.60;6.40;;;;;;;15.04;56.97;98901.50;8387525;28;20235;-60
2021/09/02 05:26:27;;;;;;;9.00;6.53;;;;;;;15.20;57.38;98904.22;8387504;28;20203;-60
2021/09/02 05:30:32;;;;;;;8.83;7.00;;;;;;;15.30;57.32;98902.84;8387180;28;20210;-60
2021/09/02 05:34:35;;;;;;;7.53;6.50;;;;;;;15.45;57.68;98904.72;8387164;28;20220;-60
2021/09/02 05:38:37;;;;;;;8.53;6.60;;;;;;;15.67;56.96;98903.66;8386141;28;20491;-60
2021/09/02 05:42:40;;;;;;;13.60;6.87;;;;;;;15.84;57.01;98905.47;8386916;28;20231;-60
2021/09/02 05:46:44;;;;;;;12.10;7.47;;;;;;;15.97;57.04;98913.47;8393414;28;20210;-60
2021/09/02 05:50:47;;;;;;;10.07;7.70;;;;;;;16.13;56.79;98909.16;8419713;28;20214;-60
2021/09/02 05:54:53;;;;;;;11.23;7.87;;;;;;;16.28;57.24;98919.72;8419723;28;20199;-60
2021/09/02 05:58:56;;;;;;;10.13;7.40;;;;;;;16.40;57.08;98914.69;8419726;28;20210;-60
2021/09/02 06:03:00;;;;;;;11.23;7.90;;;;;;;16.52;56.57;98915.81;8419175;28;20227;-61
2021/09/02 06:07:04;;;;;;;10.87;7.03;;;;;;;16.72;56.55;98919.16;8419407;28;20269;-60
2021/09/02 06:11:07;;;;;;;9.20;7.13;;;;;;;16.90;56.15;98925.16;8419270;28;20389;-60
2021/09/02 06:15:11;;;;;;;9.07;7.73;;;;;;;16.95;57.17;98926.59;8419024;28;20199;-60
2021/09/02 06:19:15;;;;;;;10.77;7.73;;;;;;;17.16;57.22;98927.19;8419332;28;20199;-60
2021/09/02 06:23:18;;;;;;;11.23;8.40;;;;;;;17.25;57.78;98930.19;8418748;28;20398;-61
2021/09/02 06:27:20;;;;;;;12.03;8.30;;;;;;;17.60;57.31;98928.19;8418955;28;20210;-61
2021/09/02 06:31:23;;;;;;;12.53;7.67;;;;;;;17.79;57.06;98927.97;8418762;28;20210;-61
2021/09/02 06:35:27;;;;;;;11.27;8.60;;;;;;;17.95;56.66;98922.69;8418731;28;20225;-61
2021/09/02 06:39:30;;;;;;;10.60;8.63;;;;;;;18.06;56.61;98930.75;8418381;28;20214;-61
2021/09/02 06:43:33;;;;;;;12.90;8.80;;;;;;;18.15;56.96;98924.97;8418205;28;20231;-60
2021/09/02 06:47:38;;;;;;;11.63;9.20;;;;;;;18.33;57.50;98924.78;8417849;28;20206;-60
2021/09/02 06:51:42;;;;;;;16.57;9.27;;;;;;;18.29;57.22;98921.50;8417770;28;20273;-60
2021/09/02 06:55:45;;;;;;;10.87;8.50;;;;;;;18.62;57.29;98928.25;8417553;28;20199;-60
2021/09/02 06:59:48;;;;;;;12.00;8.97;;;;;;;18.81;57.17;98924.50;8417558;28;20418;-60
2021/09/02 07:03:51;;;;;;;14.43;9.23;;;;;;;18.97;56.47;98927.84;8417141;28;20243;-61
2021/09/02 07:07:55;;;;;;;11.07;9.10;;;;;;;19.14;56.54;98926.75;8417407;28;20292;-61
2021/09/02 07:12:11;;;;;;;13.40;10.07;;;;;;;19.30;56.19;98924.81;8417480;28;20203;-61
2021/09/02 07:16:13;;;;;;;10.77;8.83;;;;;;;19.70;56.25;98924.84;8417304;28;20207;-60
2021/09/02 07:20:16;;;;;;;14.03;9.13;;;;;;;19.85;55.56;98936.13;8417128;28;20206;-60
2021/09/02 07:24:21;;;;;;;14.07;8.43;;;;;;;20.10;54.75;98935.34;8410332;28;20196;-63
2021/09/02 07:28:24;;;;;;;11.97;8.47;;;;;;;20.15;54.99;98934.16;8391423;28;20203;-61
2021/09/02 07:32:27;;;;;;;10.77;8.73;;;;;;;20.30;54.47;98939.22;8403564;28;20200;-61
2021/09/02 07:36:30;;;;;;;14.43;8.60;;;;;;;20.62;54.32;98938.78;8416510;28;20199;-62
2021/09/02 07:40:46;;;;;;;11.13;9.17;;;;;;;20.77;54.04;98936.88;8416602;28;20548;-62
2021/09/02 07:45:02;;;;;;;13.37;9.20;;;;;;;21.07;52.30;98944.34;8416493;28;20201;-62
2021/09/02 07:49:05;;;;;;;18.30;11.27;;;;;;;20.58;53.49;98953.09;8416026;28;20303;-62
2021/09/02 07:53:08;;;;;;;12.03;7.97;;;;;;;21.04;54.38;98952.50;8411215;28;20202;-62
2021/09/02 07:57:12;;;;;;;12.53;8.77;;;;;;;21.24;53.21;98947.56;8393875;28;20201;-62
2021/09/02 08:01:15;;;;;;;14.40;10.60;;;;;;;21.34;51.64;98948.56;8396442;28;20217;-62
2021/09/02 08:05:18;;;;;;;16.43;10.60;;;;;;;21.55;52.07;98942.69;8398319;28;20239;-62
2021/09/02 08:09:21;;;;;;;14.43;9.53;;;;;;;21.57;51.63;98946.06;8386730;28;20396;-62
2021/09/02 08:13:26;;;;;;;16.00;9.83;;;;;;;21.75;50.74;98946.50;8389361;28;20393;-62
2021/09/02 08:17:28;;;;;;;13.47;9.77;;;;;;;21.84;50.65;98949.28;8396863;28;20204;-62
2021/09/02 08:21:31;;;;;;;14.43;9.07;;;;;;;22.11;49.97;98950.78;8406589;28;20223;-62
2021/09/02 08:25:34;;;;;;;15.63;9.50;;;;;;;22.58;50.03;98945.44;8415068;28;20528;-62
2021/09/02 08:29:38;;;;;;;15.43;9.90;;;;;;;22.95;48.15;98946.03;8412276;28;20195;-62
2021/09/02 08:33:41;;;;;;;13.97;9.73;;;;;;;23.12;47.98;98941.22;8415493;28;20223;-61
2021/09/02 08:37:44;;;;;;;13.87;10.03;;;;;;;22.99;48.26;98944.81;8415601;28;20215;-63
2021/09/02 08:41:47;;;;;;;13.20;9.97;;;;;;;23.41;46.91;98946.78;8415283;28;20529;-63
2021/09/02 08:45:51;;;;;;;14.63;9.60;;;;;;;23.78;47.21;98952.53;8415521;28;20213;-62
2021/09/02 08:49:56;;;;;;;12.67;9.37;;;;;;;24.03;44.70;98934.59;8415118;28;20266;-62
2021/09/02 08:53:58;;;;;;;15.17;9.30;;;;;;;23.89;44.68;98941.03;8415355;28;20213;-61
2021/09/02 08:58:01;;;;;;;13.07;8.60;;;;;;;24.52;44.81;98940.16;8415472;28;20366;-61
2021/09/02 09:02:24;;;;;;;12.97;8.80;;;;;;;24.89;43.88;98939.63;8414952;28;20234;-62
2021/09/02 09:06:29;;;;;;;11.67;8.40;;;;;;;24.89;42.28;98942.25;8415109;28;20418;-61
2021/09/02 09:10:32;;;;;;;10.17;7.80;;;;;;;25.13;43.06;98944.53;8415225;28;20549;-61
2021/09/02 09:14:35;;;;;;;11.13;8.30;;;;;;;25.21;42.79;98942.03;8416829;28;20210;-62
2021/09/02 09:18:46;;;;;;;15.90;8.27;;;;;;;25.47;42.58;98945.00;8421066;28;20204;-62
2021/09/02 09:22:50;;;;;;;12.63;7.60;;;;;;;25.25;42.00;98940.00;8420885;28;20228;-62
2021/09/02 09:27:07;;;;;;;12.93;7.57;;;;;;;25.49;41.10;98942.22;8420789;28;20209;-62
2021/09/02 09:31:24;;;;;;;11.47;7.00;;;;;;;25.92;42.04;98935.66;8420646;28;20202;-62
2021/09/02 09:35:30;;;;;;;12.10;7.57;;;;;;;26.00;42.47;98927.81;8420323;28;20227;-62
2021/09/02 09:39:37;;;;;;;9.60;7.50;;;;;;;25.91;41.10;98928.66;8420488;28;20223;-62
2021/09/02 09:43:40;;;;;;;13.60;7.60;;;;;;;26.28;39.98;98928.72;8420362;28;20229;-61
2021/09/02 09:47:43;;;;;;;13.53;7.03;;;;;;;26.28;38.98;98926.06;8419855;28;20388;-61
2021/09/02 09:51:47;;;;;;;11.87;6.87;;;;;;;26.57;39.34;98919.81;8420006;28;20497;-62
2021/09/02 09:55:50;;;;;;;9.67;6.03;;;;;;;26.68;38.10;98918.81;8419611;28;20387;-62
2021/09/02 09:59:53;;;;;;;9.70;6.57;;;;;;;26.66;38.16;98913.66;8419939;28;20206;-62
2021/09/02 10:03:56;;;;;;;9.17;6.37;;;;;;;26.90;39.42;98915.75;8419399;28;20553;-62
2021/09/02 10:08:01;;;;;;;9.77;6.23;;;;;;;26.94;37.29;98907.47;8419742;28;20323;-61
2021/09/02 10:12:04;;;;;;;9.53;6.67;;;;;;;27.06;39.35;98908.94;8419336;28;20203;-62
2021/09/02 10:16:07;;;;;;;6.90;5.40;;;;;;;27.37;36.06;98908.59;8419216;28;20496;-62
2021/09/02 10:20:15;;;;;;;8.50;5.60;;;;;;;26.46;37.34;98904.06;8418983;28;20208;-62
2021/09/02 10:24:43;;;;;;;8.30;5.47;;;;;;;27.14;35.90;98900.22;8418837;28;20233;-62
2021/09/02 10:28:46;;;;;;;7.27;5.30;;;;;;;27.34;35.38;98891.16;8395089;28;20201;-61
2021/09/02 10:32:48;;;;;;;6.63;5.37;;;;;;;27.36;34.72;98898.94;8418396;28;20220;-61
2021/09/02 10:36:51;;;;;;;7.17;5.30;;;;;;;27.40;34.49;98895.84;8418591;28;20201;-61
2021/09/02 10:40:55;;;;;;;6.67;5.20;;;;;;;26.59;35.06;98896.63;8446250;28;20199;-62
2021/09/02 10:44:58;;;;;;;7.80;5.40;;;;;;;25.65;36.77;98888.63;8451547;28;20232;-62
2021/09/02 10:49:15;;;;;;;9.20;5.63;;;;;;;26.02;36.25;98886.06;8403833;28;20202;-62
2021/09/02 10:53:18;;;;;;;6.23;5.23;;;;;;;26.26;37.28;98882.91;8392943;28;20206;-61
2021/09/02 10:57:37;;;;;;;9.13;5.27;;;;;;;26.25;38.10;98878.56;8384488;28;20276;-62
2021/09/02 11:01:40;;;;;;;9.30;5.60;;;;;;;25.88;37.65;98878.53;8384482;28;20399;-62
2021/09/02 11:05:46;;;;;;;7.90;5.20;;;;;;;26.13;36.66;98872.59;8397529;28;20233;-62
2021/09/02 11:09:49;;;;;;;6.67;5.00;;;;;;;26.80;38.91;98876.94;8400157;28;20197;-62
2021/09/02 11:13:55;;;;;;;6.83;4.77;;;;;;;26.98;35.93;98875.16;8399737;28;20199;-62
2021/09/02 11:17:58;;;;;;;7.07;4.80;;;;;;;26.63;36.24;98873.25;8399733;28;20196;-62
2021/09/02 11:22:17;;;;;;;6.20;4.87;;;;;;;26.68;36.87;98877.16;8399501;28;20223;-62
2021/09/02 11:26:30;;;;;;;6.77;4.33;;;;;;;27.06;34.92;98869.91;8399964;28;20392;-62
2021/09/02 11:30:35;;;;;;;9.43;4.83;;;;;;;26.58;33.50;98868.38;8399328;28;20193;-62
2021/09/02 11:34:38;;;;;;;7.47;4.87;;;;;;;26.37;35.24;98865.09;8399061;28;20212;-62
2021/09/02 11:38:42;;;;;;;6.67;5.17;;;;;;;25.83;35.34;98857.72;8398473;28;20196;-62
2021/09/02 11:42:45;;;;;;;4.63;4.23;;;;;;;26.37;34.24;98855.34;8398938;28;20222;-60
2021/09/02 11:46:49;;;;;;;12.30;4.53;;;;;;;26.22;32.85;98849.69;8400602;28;20383;-60
2021/09/02 11:50:59;;;;;;;8.97;4.40;;;;;;;26.73;33.55;98847.47;8389153;28;20195;-62
2021/09/02 11:55:02;;;;;;;6.27;4.37;;;;;;;26.39;32.36;98842.75;8390669;28;20203;-61
2021/09/02 11:59:06;;;;;;;7.53;4.40;;;;;;;26.82;34.17;98843.09;8398657;28;20230;-61
2021/09/02 12:03:11;;;;;;;4.97;4.30;;;;;;;27.20;33.38;98836.63;8398311;28;20565;-62
2021/09/02 12:07:14;;;;;;;9.17;4.47;;;;;;;27.15;34.72;98838.94;8398594;28;20199;-63
2021/09/02 12:11:17;;;;;;;7.03;4.20;;;;;;;26.99;32.76;98844.91;8398494;28;20256;-62
2021/09/02 12:15:26;;;;;;;5.50;4.00;;;;;;;26.93;31.76;98826.91;8396417;28;20215;-62
2021/09/02 12:19:31;;;;;;;4.93;3.67;;;;;;;27.33;32.17;98824.81;8405320;28;20204;-62
2021/09/02 12:23:42;;;;;;;4.67;3.80;;;;;;;27.54;32.95;98824.47;8415809;28;20242;-62
2021/09/02 12:27:47;;;;;;;7.07;4.30;;;;;;;26.79;32.27;98830.94;8415883;28;20213;-62
2021/09/02 12:31:51;;;;;;;6.27;4.03;;;;;;;27.48;32.85;98816.09;8415696;28;20219;-62
2021/09/02 12:35:56;;;;;;;10.77;4.00;;;;;;;27.27;31.74;98815.63;8415526;28;20226;-62
2021/09/02 12:40:02;;;;;;;4.60;4.10;;;;;;;27.37;31.70;98818.19;8415452;28;20509;-62
2021/09/02 12:44:07;;;;;;;4.67;3.73;;;;;;;27.55;30.32;98813.69;8415448;28;20269;-62
2021/09/02 12:48:12;;;;;;;4.50;3.57;;;;;;;27.85;31.70;98816.84;8412491;28;20207;-61
2021/09/02 12:52:20;;;;;;;4.47;3.70;;;;;;;26.84;33.46;98803.91;8421700;28;20211;-61
2021/09/02 12:56:23;;;;;;;5.97;3.90;;;;;;;27.40;31.98;98805.41;8421545;28;20200;-61
2021/09/02 13:00:30;;;;;;;5.57;3.67;;;;;;;27.15;32.02;98792.88;8421431;28;20485;-62
2021/09/02 13:04:32;;;;;;;5.00;3.77;;;;;;;27.20;33.51;98790.59;8415238;28;20560;-61
2021/09/02 13:08:39;;;;;;;5.57;3.50;;;;;;;27.49;31.88;98796.50;8403651;28;20195;-61
2021/09/02 13:12:42;;;;;;;6.67;3.97;;;;;;;27.23;32.76;98796.44;8406295;28;20395;-61
2021/09/02 13:16:47;;;;;;;4.70;3.53;;;;;;;27.61;31.37;98788.28;8403613;28;20194;-61
2021/09/02 13:20:50;;;;;;;4.33;3.53;;;;;;;26.80;32.22;98789.25;8403423;28;20215;-61
2021/09/02 13:24:54;;;;;;;8.03;4.07;;;;;;;26.37;33.37;98786.31;8402442;28;20225;-61
2021/09/02 13:28:57;;;;;;;5.23;4.10;;;;;;;25.99;33.39;98789.97;8409559;28;20192;-61
2021/09/02 13:33:00;;;;;;;5.33;4.30;;;;;;;25.90;33.50;98787.19;8404028;28;20220;-61
2021/09/02 13:37:03;;;;;;;4.50;4.10;;;;;;;26.75;31.97;98795.03;8405200;28;20198;-61
2021/09/02 13:41:07;;;;;;;9.20;4.50;;;;;;;26.34;33.07;98791.91;8402890;28;20493;-61
2021/09/02 13:45:11;;;;;;;5.77;4.33;;;;;;;26.08;33.39;98783.78;8401680;28;20222;-62
2021/09/02 13:49:17;;;;;;;8.33;4.60;;;;;;;26.33;32.39;98780.47;8404496;28;20233;-62
2021/09/02 13:53:19;;;;;;;5.87;4.07;;;;;;;26.74;33.29;98771.28;8403937;28;20397;-62
2021/09/02 13:57:26;;;;;;;5.00;4.13;;;;;;;27.09;33.12;98768.59;8402205;28;20242;-62
2021/09/02 14:01:29;;;;;;;4.57;4.10;;;;;;;27.02;31.06;98774.69;8400516;28;20260;-62
2021/09/02 14:05:33;;;;;;;5.53;4.40;;;;;;;26.85;32.07;98768.41;8401985;28;20231;-62
2021/09/02 14:09:38;;;;;;;5.90;4.10;;;;;;;26.76;30.53;98764.81;8401258;28;20365;-62
2021/09/02 14:13:43;;;;;;;6.73;4.30;;;;;;;26.07;31.93;98760.91;8402081;28;20201;-62
2021/09/02 14:17:46;;;;;;;7.77;4.07;;;;;;;26.55;31.61;98756.28;8401578;28;20203;-62
2021/09/02 14:21:51;;;;;;;5.47;4.67;;;;;;;26.85;31.99;98763.06;8401751;28;20498;-62
2021/09/02 14:25:54;;;;;;;4.67;4.00;;;;;;;26.39;31.29;98762.25;8401439;28;20418;-62
2021/09/02 14:29:58;;;;;;;7.60;4.20;;;;;;;26.34;31.39;98755.56;8400299;28;20519;-62
2021/09/02 14:34:04;;;;;;;5.40;4.47;;;;;;;26.69;31.10;98747.81;8406940;28;20239;-62
2021/09/02 14:38:08;;;;;;;6.00;4.60;;;;;;;26.48;31.15;98751.59;8401717;28;20208;-63
2021/09/02 14:42:11;;;;;;;5.83;4.40;;;;;;;26.37;32.42;98738.50;8400808;28;20197;-63
2021/09/02 14:46:17;;;;;;;6.03;4.47;;;;;;;26.44;31.85;98728.94;8401498;28;20224;-63
2021/09/02 14:50:29;;;;;;;7.23;4.70;;;;;;;26.59;31.96;98733.75;8400621;28;20374;-63
2021/09/02 14:54:32;;;;;;;6.57;4.50;;;;;;;26.27;32.15;98735.06;8396695;28;20210;-63
2021/09/02 14:58:34;;;;;;;5.00;4.30;;;;;;;26.54;32.91;98734.22;8384724;28;20202;-63
2021/09/02 15:02:39;;;;;;;5.67;4.50;;;;;;;25.84;32.96;98734.72;8384438;28;20513;-63
2021/09/02 15:06:42;;;;;;;4.77;4.30;;;;;;;25.76;33.14;98726.66;8384489;28;20246;-63
2021/09/02 15:10:45;;;;;;;6.93;4.10;;;;;;;26.07;32.54;98721.91;8383981;28;20235;-63
2021/09/02 15:14:48;;;;;;;5.20;4.53;;;;;;;25.83;32.39;98721.59;8383373;28;20489;-63
2021/09/02 15:18:54;;;;;;;5.53;4.40;;;;;;;26.03;32.80;98722.38;8384025;28;20204;-63
2021/09/02 15:22:57;;;;;;;6.30;4.50;;;;;;;26.10;32.76;98721.63;8384226;28;20214;-63
2021/09/02 15:27:00;;;;;;;6.30;4.60;;;;;;;26.08;33.13;98718.31;8383737;28;20225;-61
2021/09/02 15:31:08;;;;;;;5.20;4.60;;;;;;;26.22;34.16;98713.47;8383744;28;20210;-61
2021/09/02 15:35:12;;;;;;;6.87;4.83;;;;;;;26.18;34.56;98712.94;8383526;28;20257;-62
2021/09/02 15:39:18;;;;;;;5.17;4.40;;;;;;;25.92;34.96;98702.19;8383441;28;20462;-62
2021/09/02 15:43:21;;;;;;;4.57;4.17;;;;;;;25.88;33.40;98706.91;8405467;28;20435;-62
2021/09/02 15:47:23;;;;;;;4.63;4.20;;;;;;;25.31;34.71;98706.16;8416242;28;20581;-59
2021/09/02 15:51:30;;;;;;;4.20;3.80;;;;;;;24.93;35.45;98699.94;8416373;28;20200;-58
2021/09/02 15:55:33;;;;;;;5.30;4.33;;;;;;;24.70;35.55;98689.63;8415824;28;20212;-59
2021/09/02 15:59:38;;;;;;;5.77;4.77;;;;;;;24.67;35.63;98689.06;8416350;28;20199;-58
2021/09/02 16:03:41;;;;;;;6.17;4.10;;;;;;;24.68;35.24;98680.16;8416004;28;20238;-58
2021/09/02 16:07:47;;;;;;;4.57;3.90;;;;;;;24.68;34.87;98677.50;8416350;28;20204;-58
2021/09/02 16:11:50;;;;;;;4.60;4.20;;;;;;;24.58;34.87;98675.69;8416296;28;20207;-58
2021/09/02 16:15:53;;;;;;;5.97;4.30;;;;;;;24.38;34.55;98674.00;8415488;28;20207;-58
2021/09/02 16:19:59;;;;;;;5.40;4.37;;;;;;;24.47;35.16;98678.47;8415876;28;20198;-58
2021/09/02 16:24:04;;;;;;;4.30;3.87;;;;;;;24.29;35.27;98667.69;8418650;28;20286;-58
2021/09/02 16:28:08;;;;;;;5.10;4.10;;;;;;;24.10;35.92;98670.34;8422763;28;20207;-58
2021/09/02 16:32:14;;;;;;;5.67;4.40;;;;;;;23.87;35.99;98667.91;8422665;28;20506;-59
2021/09/02 16:36:16;;;;;;;5.67;4.17;;;;;;;24.07;36.47;98662.69;8422248;28;20208;-58
2021/09/02 16:40:21;;;;;;;5.40;4.40;;;;;;;23.94;36.35;98657.63;8422022;28;20200;-58
2021/09/02 16:44:23;;;;;;;5.70;4.10;;;;;;;23.85;36.71;98661.09;8422079;28;20222;-58
2021/09/02 16:48:26;;;;;;;4.53;4.10;;;;;;;23.85;37.73;98653.16;8421974;28;20199;-58
2021/09/02 16:52:29;;;;;;;7.50;4.57;;;;;;;23.75;36.94;98653.94;8422028;28;20199;-58
2021/09/02 16:56:33;;;;;;;7.27;4.10;;;;;;;23.78;36.68;98644.91;8421808;28;20400;-58
2021/09/02 17:00:38;;;;;;;7.07;4.30;;;;;;;23.66;37.09;98654.75;8421535;28;20206;-58
2021/09/02 17:04:41;;;;;;;5.60;4.13;;;;;;;23.61;37.62;98647.22;8421199;28;20242;-58
2021/09/02 17:08:44;;;;;;;4.90;4.10;;;;;;;23.57;37.59;98640.53;8421446;28;20308;-58
2021/09/02 17:12:49;;;;;;;5.43;4.67;;;;;;;23.49;37.79;98637.72;8421145;28;20199;-58
2021/09/02 17:16:52;;;;;;;5.93;4.00;;;;;;;23.45;37.54;98643.41;8420997;28;20207;-58
2021/09/02 17:20:55;;;;;;;8.67;4.43;;;;;;;23.41;38.11;98646.31;8420953;28;20226;-58
2021/09/02 17:25:00;;;;;;;4.70;4.30;;;;;;;23.31;38.37;98639.31;8420803;28;20289;-58
2021/09/02 17:29:04;;;;;;;4.70;4.17;;;;;;;23.30;38.54;98638.47;8420646;28;20199;-58
2021/09/02 17:33:09;;;;;;;5.33;4.70;;;;;;;23.17;38.68;98632.56;8420498;28;20240;-58
2021/09/02 17:37:18;;;;;;;5.23;4.73;;;;;;;23.13;38.96;98634.66;8419239;28;20389;-58
2021/09/02 17:41:21;;;;;;;7.20;4.40;;;;;;;23.09;40.11;98629.75;8420292;28;20202;-58
2021/09/02 17:45:25;;;;;;;4.50;4.10;;;;;;;22.99;38.96;98638.41;8420093;28;20234;-58
2021/09/02 17:49:28;;;;;;;7.23;4.30;;;;;;;22.96;39.76;98636.06;8419788;28;20210;-58
2021/09/02 17:53:30;;;;;;;5.50;4.80;;;;;;;22.96;39.93;98630.78;8423938;28;20209;-58
2021/09/02 17:57:33;;;;;;;8.03;4.60;;;;;;;22.96;41.45;98630.78;8453486;28;20215;-58
2021/09/02 18:01:37;;;;;;;7.07;4.57;;;;;;;22.94;40.99;98637.13;8453313;28;20209;-58
2021/09/02 18:05:41;;;;;;;6.23;4.07;;;;;;;22.89;41.46;98636.72;8453096;28;20242;-58
2021/09/02 18:09:45;;;;;;;6.53;4.50;;;;;;;22.81;43.20;98632.09;8452976;28;20603;-58
2021/09/02 18:13:48;;;;;;;9.90;4.73;;;;;;;22.75;43.15;98638.72;8452915;28;20199;-58
2021/09/02 18:17:54;;;;;;;10.77;4.63;;;;;;;22.68;43.88;98637.53;8452881;28;20212;-58
2021/09/02 18:21:57;;;;;;;5.60;5.00;;;;;;;22.57;44.09;98646.34;8452670;28;20202;-58
2021/09/02 18:26:00;;;;;;;5.57;4.80;;;;;;;22.59;44.47;98646.22;8452523;28;20226;-58
2021/09/02 18:30:03;;;;;;;8.40;4.57;;;;;;;22.54;44.72;98640.47;8452420;28;20236;-58
2021/09/02 18:34:10;;;;;;;5.70;4.73;;;;;;;22.46;45.26;98633.19;8452151;28;20388;-58
2021/09/02 18:38:14;;;;;;;9.60;4.93;;;;;;;22.37;46.04;98640.09;8428425;28;20202;-57
2021/09/02 18:42:19;;;;;;;5.23;4.67;;;;;;;22.20;46.83;98643.22;8418457;28;20511;-58
2021/09/02 18:46:22;;;;;;;9.47;6.20;;;;;;;22.10;46.62;98640.50;8414912;28;20225;-57
2021/09/02 18:50:27;;;;;;;12.37;6.73;;;;;;;22.00;47.35;98643.03;8418146;28;20225;-57
2021/09/02 18:54:30;;;;;;;10.53;7.63;;;;;;;21.94;47.73;98643.53;8417869;28;20203;-57
2021/09/02 18:58:33;;;;;;;7.17;6.47;;;;;;;21.85;48.83;98641.66;8417873;28;20207;-57
2021/09/02 19:02:39;;;;;;;8.07;6.27;;;;;;;21.80;48.89;98641.16;8417852;28;20517;-58
2021/09/02 19:06:43;;;;;;;6.03;5.07;;;;;;;21.75;48.04;98633.63;8417721;28;20234;-57